Главная страница
METAR-TAF:

METAR-TAF

Аэропорты :

Лонгйир, Норвегия

Свальбард

широта: 78-15N, долгота: 015-28E, высота над уровнем моря: 2 м

Текущие метеонаблюдения

Эта сводка был подготовлена 39 минут назад, в 06:50 UTC
Ветер 12 Узел от восточно-юго-восточный
Температура -8°C
Влажность 67%
Давление 1008 hPa
Видимость 10 км и более
небольшая облачность на высоте 2000 фута

METAR: ENSB 230650Z 11012KT 9999 FEW020 M08/M13 Q1008 NOSIG RMK WIND 1400FT VRB02KT

Время: 09:29 (07:29 UTC)

Прогноз

Прогноз действительный с 23-го 06 UTC до 24-го 06 UTC
Ветер 12 Узел от восточно-юго-восточный
Видимость 10 км и более
небольшая облачность на высоте 2000 фута
Отдельные облака на высоте 5000 фута

TAF: ENSB 2306/2406 11012KT 9999 FEW020 SCT050

Метеонаблюдения и прогнозы для более 4000 аэропортов (сводки METAR и TAF).

Имеющиеся станции представлены на карте желтыми и красными точками.

Чтобы увидеть название станции, наведите на нее мышь.

Затем щелкните, чтобы увидеть метеонаблюдения и метеопрогнозы.

Управление картой: чтобы увеличить масштаб, щелкните зеленые кнопки с черным крестиком; чтобы уменьшить масштаб, щелкните зеленую кнопку с тире; для просмотра соседних карт щелкайте зеленые стрелки.


METAR-TAF: